GCLPGCFV

Guest
Details From GCLP - Gran Canaria - Gando
To GCFV - Fuerteventura
Flight Number -
Tags Generated
Created
Modified
Stats Distance 86 nm / 160 km
Max Altitude 0 ft / 0 m
Waypoints 2
Social Downloads 0
Likes 0
Share VATSIM

Download

Looking for another format? Having issues loading an existing format? Contact us
Advertisement - Login to hide

Notes

Generated

Route

GCLP GCFV

ID Type Via Altitude Latitude Longitude Leg Dist Tot Dist Heading (true) Name
O GCLP APT - 0 ft / 0 m 27.91818˚ -15.39035˚ - 0 nm - -
O GCFV APT - 0 ft / 0 m 28.43299˚ -13.86439˚ 86 nm 86 nm 69° / 69° -

Altitude Profile

Advertisement - Login to hide

GCLP

Details ICAO GCLP (LPA)
Name Gran Canaria
Region Canary Islands
Timezone Atlantic/Canary (UTC+0.0)
Stats Elevation 77 ft / 23 m (AMSL)
Location 27.931544° -15.385592°
Runways 2
Magnetic Variation 4.685° W

METAR

GCLP 130630Z 03026G36KT 9999 SCT040 SCT050 BKN065 18/11 Q1021 NOSIG

Decode

TAF

TAF AMD GCLP 130458Z 1304/1403 02025KT 9999 SCT040 TX20/1314Z TN16/1306Z TEMPO 1304/1312 RA TEMPO 1304/1318 02025G38KT BECMG 1322/1324 03015KT

Decode

Departure Runways

ID Width Length Bearing (true) Bearing (mag) Surface Threshold Offset Overrun Length
03L 148 ft / 45 m 10,203 ft / 3,110 m 21.33° 26.02° Asphalt 0 ft / 0 m 656 ft / 200 m
03R 148 ft / 45 m 10,200 ft / 3,109 m 21.32° 26.01° Asphalt 0 ft / 0 m 673 ft / 205 m
21L 148 ft / 45 m 10,200 ft / 3,109 m 201.33° 206.02° Asphalt 0 ft / 0 m 689 ft / 210 m
21R 148 ft / 45 m 10,203 ft / 3,110 m 201.33° 206.02° Asphalt 0 ft / 0 m 755 ft / 230 m

GCFV

Details ICAO GCFV (FUE)
Name Fuerteventura
Region Canary Islands
Timezone Atlantic/Canary (UTC+0.0)
Stats Elevation 85 ft / 26 m (AMSL)
Location 28.447882° -13.864892°
Runways 2
Magnetic Variation 4.099° W

METAR

GCFV 130630Z 03027KT 9999 SCT046 18/09 Q1021

Decode

TAF

TAF TAF GCFV 130200Z 1303/1403 02020KT 9999 FEW040 TX20/1314Z TN16/1306Z TEMPO 1303/1316 02025G35KT

Decode

Destination Runways

ID Width Length Bearing (true) Bearing (mag) Surface Threshold Offset Overrun Length
01L 148 ft / 45 m 5,433 ft / 1,656 m 1.67° 5.77° Asphalt 0 ft / 0 m 984 ft / 300 m
01R 148 ft / 45 m 7,905 ft / 2,409 m 1.66° 5.76° Asphalt 0 ft / 0 m 3,281 ft / 1,000 m
19L 148 ft / 45 m 7,905 ft / 2,409 m 181.66° 185.76° Asphalt 0 ft / 0 m 197 ft / 60 m
19R 148 ft / 45 m 5,433 ft / 1,656 m 181.67° 185.77° Asphalt 0 ft / 0 m 820 ft / 250 m

Approach Navaids

Runway Type Ident Frequency Range Bearing (true) Bearing (mag) Slope Elevation
01R Localiser IFV 109.50 MHz 18 nm / 33 km 1.66° 5.76° - 64 ft / 20 m (AMSL)
01R Glidescope IFV 109.50 MHz 10 nm / 19 km 1.66° 5.76° 3.00° 85 ft / 26 m (AMSL)
01R DME IFV 109.50 MHz 18 nm / 33 km - - - 85 ft / 26 m (AMSL)

Popular Alternatives